EST,Max TemperatureF,Mean TemperatureF,Min TemperatureF,Max Dew PointF,MeanDew PointF,Min DewpointF,Max Humidity, Mean Humidity, Min Humidity, Max Sea Level PressureIn, Mean Sea Level PressureIn, Min Sea Level PressureIn, Max VisibilityMiles, Mean VisibilityMiles, Min VisibilityMiles, Max Wind SpeedMPH, Mean Wind SpeedMPH, Max Gust SpeedMPH,PrecipitationIn, CloudCover, Events, WindDirDegrees
2012-11-1,46,42,39,41,37,33,92,80,61,29.75,29.69,29.62,10,9,4,24,18,28,0.73,8,Rain,279
2012-11-2,45,42,39,36,32,30,81,69,62,30.04,29.89,29.74,10,10,6,23,19,30,0.38,8,Rain,317
2012-11-3,43,42,41,34,33,29,76,71,62,30.16,30.12,30.05,10,10,10,18,14,24,0.12,8,,328
2012-11-4,41,39,37,35,30,28,89,70,62,30.17,30.15,30.13,10,10,10,16,10,18,0.05,8,Rain,344
2012-11-5,39,38,37,33,29,26,83,70,62,30.21,30.18,30.13,10,10,8,14,9,,0.01,8,Rain,41
2012-11-6,44,39,34,32,26,23,70,63,49,30.17,30.08,29.97,10,10,10,15,8,17,0.00,3,,92
2012-11-7,44,37,30,31,28,25,79,64,47,30.11,30.03,29.95,10,10,10,16,5,22,0.00,2,,62
2012-11-8,42,38,35,33,31,30,82,70,65,30.22,30.17,30.11,10,9,6,10,8,,0.00,5,,343
2012-11-9,51,42,34,41,35,29,85,71,59,30.25,30.18,30.13,9,6,3,10,6,,0.00,5,,188
2012-11-10,64,55,46,45,43,40,86,66,46,30.20,30.15,30.09,10,9,5,16,8,23,0.08,4,Rain,164
2012-11-11,69,62,55,39,36,31,51,38,27,30.24,30.15,30.04,10,10,10,22,14,30,0.00,1,,174
2012-11-12,64,50,34,53,40,24,100,77,31,30.34,30.09,29.97,10,8,2,28,18,37,0.39,6,Rain,235
2012-11-13,36,34,33,28,25,23,75,68,59,30.56,30.46,30.35,10,10,3,17,12,22,0.00,8,Snow,228
2012-11-14,39,37,34,27,26,24,73,64,55,30.60,30.53,30.44,10,10,10,9,5,,0.00,6,,131
2012-11-15,45,38,30,33,29,24,79,70,56,30.42,30.37,30.34,10,10,7,9,3,,0.00,3,,45
2012-11-16,48,42,37,37,35,32,87,77,63,30.52,30.43,30.36,10,9,5,8,4,,0.00,2,,24
2012-11-17,51,42,34,42,35,29,90,79,64,30.63,30.57,30.52,8,6,5,9,4,,0.00,0,,79
2012-11-18,55,44,34,42,32,28,86,66,38,30.54,30.49,30.43,10,9,5,9,2,,0.00,0,,133
2012-11-19,53,45,37,41,33,29,82,65,45,30.42,30.32,30.20,10,10,8,13,7,,0.00,0,,137
2012-11-20,53,47,41,43,37,33,83,69,52,30.19,30.15,30.10,10,9,7,8,4,,0.00,3,,141
2012-11-21,51,45,39,45,39,34,97,77,63,30.24,30.20,30.14,10,6,2,9,2,,0.00,2,,182
2012-11-22,62,52,41,41,36,32,70,56,44,30.19,30.10,29.93,10,9,6,14,10,20,0.00,1,,171
2012-11-23,55,44,32,47,34,26,93,74,51,30.00,29.88,29.79,10,8,0,33,21,44,0.07,6,Fog-Rain-Snow,238
2012-11-24,36,34,30,28,24,21,79,65,59,30.09,30.05,29.97,10,10,8,28,22,33,0.00,8,Snow,284
2012-11-25,39,34,28,30,24,19,81,67,53,30.06,29.96,29.86,10,9,1,20,15,24,0.00,7,Snow,236
2012-11-26,41,38,36,31,27,24,79,66,51,30.28,30.15,30.00,10,10,9,16,11,,0.00,6,,296
2012-11-27,35,32,28,25,23,19,75,66,60,30.35,30.30,30.25,10,10,10,10,7,,0.00,6,,313
2012-11-28,37,32,28,26,23,19,73,66,59,30.35,30.31,30.26,10,10,8,18,11,26,0.00,5,,234
2012-11-29,48,39,30,25,23,19,75,55,33,30.36,30.31,30.24,10,9,7,13,9,18,0.00,1,,198
2012-11-30,50,44,37,39,30,23,86,61,43,30.27,30.21,30.15,10,8,2,10,8,,0.00,6,,110